createdAt,value
2018-01-23T00:00:31.474Z,99.62
2018-01-23T00:01:31.462Z,99.33
2018-01-23T00:02:31.447Z,99.05
2018-01-23T00:03:31.432Z,98.77
2018-01-23T00:04:31.420Z,98.15
2018-01-23T00:05:31.405Z,98.15
2018-01-23T00:06:31.391Z,98.11
2018-01-23T00:07:31.378Z,98.86
2018-01-23T00:08:31.364Z,99.05
2018-01-23T00:09:31.346Z,99.24
2018-01-23T00:10:31.335Z,99.15
2018-01-23T00:11:31.319Z,99.15
2018-01-23T00:12:31.300Z,99.48
2018-01-23T00:13:31.290Z,99.19
2018-01-23T00:14:31.277Z,99.38
2018-01-23T00:15:31.259Z,99.48
2018-01-23T00:16:31.248Z,99.66
2018-01-23T00:17:31.228Z,99.38
2018-01-23T00:18:31.214Z,99.19
2018-01-23T00:19:31.200Z,99.57
2018-01-23T00:20:31.189Z,99.48
2018-01-23T00:21:31.174Z,99.48
2018-01-23T00:22:31.160Z,99.38
2018-01-23T00:23:31.145Z,99.48
2018-01-23T00:24:31.129Z,99.52
2018-01-23T00:25:31.117Z,99.52
2018-01-23T00:26:31.101Z,99.52
2018-01-23T00:27:31.084Z,99.48
2018-01-23T00:28:31.071Z,99.38
2018-01-23T00:29:31.057Z,99.10
2018-01-23T00:30:31.046Z,99.29
2018-01-23T00:31:31.028Z,99.52
2018-01-23T00:32:31.015Z,99.38
2018-01-23T00:33:30.999Z,99.95
2018-01-23T00:34:30.986Z,99.38
2018-01-23T00:35:30.972Z,99.38
2018-01-23T00:36:30.956Z,98.72
2018-01-23T00:37:30.938Z,99.29
2018-01-23T00:38:30.930Z,99.01
2018-01-23T00:39:30.914Z,98.63
2018-01-23T00:40:30.894Z,99.10
2018-01-23T00:41:30.881Z,99.38
2018-01-23T00:42:30.873Z,99.57
2018-01-23T00:43:30.855Z,99.19
2018-01-23T00:44:30.840Z,99.43
2018-01-23T00:45:30.828Z,99.57
2018-01-23T00:46:30.811Z,99.38
2018-01-23T00:47:30.795Z,99.48
2018-01-23T00:48:30.782Z,99.38
2018-01-23T00:49:30.770Z,99.29
2018-01-23T00:50:30.753Z,99.38
2018-01-23T00:51:30.739Z,99.38
2018-01-23T00:52:30.722Z,99.19
2018-01-23T00:53:30.713Z,99.66
2018-01-23T00:54:30.694Z,99.48
2018-01-23T00:55:30.681Z,99.38
2018-01-23T00:56:30.663Z,99.38
2018-01-23T00:57:30.651Z,99.95
2018-01-23T00:58:30.638Z,99.99
2018-01-23T00:59:30.622Z,99.62
2018-01-23T01:00:30.603Z,99.52
2018-01-23T01:01:30.592Z,99.62
2018-01-23T01:02:30.580Z,99.15
2018-01-23T01:03:30.564Z,98.68
2018-01-23T01:04:30.554Z,99.05
2018-01-23T01:05:30.537Z,99.24
2018-01-23T01:06:30.522Z,99.43
2018-01-23T01:07:30.506Z,99.62
2018-01-23T01:08:30.492Z,99.62
2018-01-23T01:09:30.479Z,99.66
2018-01-23T01:10:30.459Z,99.66
2018-01-23T01:11:30.452Z,99.38
2018-01-23T01:12:30.435Z,99.99
2018-01-23T01:13:30.418Z,99.76
2018-01-23T01:14:30.404Z,99.95
2018-01-23T01:15:30.391Z,99.99
2018-01-23T01:16:30.374Z,99.99
2018-01-23T01:17:30.362Z,99.85
2018-01-23T01:18:30.347Z,99.99
2018-01-23T01:19:30.331Z,99.66
2018-01-23T01:20:30.326Z,99.95
2018-01-23T01:21:30.303Z,99.76
2018-01-23T01:22:30.293Z,99.95
2018-01-23T01:23:30.279Z,99.99
2018-01-23T01:24:30.260Z,99.99
2018-01-23T01:25:30.246Z,99.85
2018-01-23T01:26:30.231Z,99.95
2018-01-23T01:27:30.217Z,99.99
2018-01-23T01:28:30.200Z,99.95
2018-01-23T01:29:30.188Z,99.95
2018-01-23T01:30:30.175Z,99.99
2018-01-23T01:31:30.159Z,99.66
2018-01-23T01:32:30.145Z,99.48
2018-01-23T01:33:30.130Z,99.57
2018-01-23T01:34:30.112Z,99.85
2018-01-23T01:35:30.104Z,99.99
2018-01-23T01:36:30.093Z,99.95
2018-01-23T01:37:30.075Z,99.48
2018-01-23T01:38:30.054Z,99.85
2018-01-23T01:39:30.044Z,99.99
2018-01-23T01:40:30.027Z,99.99
2018-01-23T01:41:30.013Z,99.76
2018-01-23T01:42:30.000Z,99.99
2018-01-23T01:43:29.984Z,99.99
2018-01-23T01:44:29.971Z,99.76
2018-01-23T01:45:29.957Z,99.95
2018-01-23T01:46:29.943Z,99.29
2018-01-23T01:47:29.928Z,99.19
2018-01-23T01:48:29.910Z,99.48
2018-01-23T01:49:29.893Z,99.43
2018-01-23T01:50:29.885Z,99.38
2018-01-23T01:51:29.868Z,99.43
2018-01-23T01:52:29.854Z,99.43
2018-01-23T01:53:29.837Z,99.43
2018-01-23T01:54:29.825Z,99.43
2018-01-23T01:55:29.808Z,99.10
2018-01-23T01:56:29.794Z,99.19
2018-01-23T01:57:29.778Z,98.86
2018-01-23T01:58:29.768Z,98.86
2018-01-23T01:59:29.757Z,98.77
2018-01-23T02:00:29.736Z,99.05
2018-01-23T02:01:29.726Z,99.24
2018-01-23T02:02:29.708Z,99.05
2018-01-23T02:03:29.695Z,98.77
2018-01-23T02:04:29.680Z,99.24
2018-01-23T02:05:29.664Z,99.05
2018-01-23T02:06:29.650Z,98.86
2018-01-23T02:07:29.638Z,98.86
2018-01-23T02:08:29.623Z,98.86
2018-01-23T02:09:29.608Z,99.24
2018-01-23T02:10:29.593Z,99.05
2018-01-23T02:11:29.580Z,99.33
2018-01-23T02:12:29.563Z,99.43
2018-01-23T02:13:29.552Z,99.52
2018-01-23T02:14:29.536Z,99.76
2018-01-23T02:15:29.518Z,99.71
2018-01-23T02:16:29.505Z,99.66
2018-01-23T02:17:29.486Z,99.15
2018-01-23T02:18:29.478Z,99.81
2018-01-23T02:19:29.466Z,99.24
2018-01-23T02:20:29.448Z,99.38
2018-01-23T02:21:29.431Z,99.57
2018-01-23T02:22:29.422Z,99.99
2018-01-23T02:23:29.406Z,99.66
2018-01-23T02:24:29.388Z,99.81
2018-01-23T02:25:29.377Z,99.99
2018-01-23T02:26:29.365Z,99.81
2018-01-23T02:27:29.348Z,99.43
2018-01-23T02:28:29.330Z,99.71
2018-01-23T02:29:29.321Z,99.43
2018-01-23T02:30:29.303Z,99.43
2018-01-23T02:31:29.288Z,99.48
2018-01-23T02:32:29.276Z,99.81
2018-01-23T02:33:29.264Z,99.99
2018-01-23T02:34:29.247Z,99.99
2018-01-23T02:35:29.232Z,99.99
2018-01-23T02:36:29.218Z,99.95
2018-01-23T02:37:29.202Z,99.62
2018-01-23T02:38:29.189Z,99.90
2018-01-23T02:39:29.173Z,99.90
2018-01-23T02:40:29.162Z,99.81
2018-01-23T02:41:36.002Z,99.43
2018-01-23T02:42:29.131Z,99.62
2018-01-23T02:43:29.126Z,99.81
2018-01-23T02:44:29.097Z,99.62
2018-01-23T02:45:29.087Z,99.52
2018-01-23T02:46:29.072Z,98.68
2018-01-23T02:47:29.059Z,99.81
2018-01-23T02:48:29.043Z,99.52
2018-01-23T02:49:29.030Z,99.52
2018-01-23T02:50:29.010Z,99.62
2018-01-23T02:51:29.003Z,99.24
2018-01-23T02:52:28.987Z,99.43
2018-01-23T02:53:28.971Z,99.52
2018-01-23T02:54:28.954Z,99.43
2018-01-23T02:55:28.944Z,99.62
2018-01-23T02:56:28.929Z,99.05
2018-01-23T02:57:28.913Z,99.15
2018-01-23T02:58:28.898Z,99.05
2018-01-23T02:59:28.884Z,99.81
2018-01-23T03:00:28.870Z,99.15
2018-01-23T03:01:28.856Z,99.52
2018-01-23T03:02:28.848Z,99.81
2018-01-23T03:03:28.824Z,99.24
2018-01-23T03:04:28.812Z,99.05
2018-01-23T03:05:28.796Z,99.24
2018-01-23T03:06:28.785Z,99.71
2018-01-23T03:07:28.770Z,99.24
2018-01-23T03:08:28.750Z,99.43
2018-01-23T03:09:28.738Z,99.05
2018-01-23T03:10:28.725Z,99.05
2018-01-23T03:11:28.711Z,98.77
2018-01-23T03:12:28.696Z,98.96
2018-01-23T03:13:28.680Z,99.24
2018-01-23T03:14:28.697Z,99.52
2018-01-23T03:15:28.658Z,99.43
2018-01-23T03:16:28.637Z,99.52
2018-01-23T03:17:28.626Z,99.43
2018-01-23T03:18:28.612Z,99.81
2018-01-23T03:19:28.607Z,99.71
2018-01-23T03:20:28.586Z,99.52
2018-01-23T03:21:28.591Z,99.43
2018-01-23T03:22:28.555Z,99.43
2018-01-23T03:23:28.541Z,99.62
2018-01-23T03:24:28.525Z,99.43
2018-01-23T03:25:28.512Z,99.43
2018-01-23T03:26:28.496Z,99.99
2018-01-23T03:27:28.484Z,99.71
2018-01-23T03:28:28.467Z,99.62
2018-01-23T03:29:28.454Z,99.43
2018-01-23T03:30:28.443Z,99.90
2018-01-23T03:31:28.425Z,99.15
2018-01-23T03:32:28.407Z,99.71
2018-01-23T03:33:28.396Z,99.52
2018-01-23T03:34:28.382Z,99.52
2018-01-23T03:35:28.371Z,98.96
2018-01-23T03:36:28.353Z,99.24
2018-01-23T03:37:28.335Z,99.43
2018-01-23T03:38:28.324Z,99.05
2018-01-23T03:39:28.310Z,99.24
2018-01-23T03:40:28.291Z,99.15
2018-01-23T03:41:28.285Z,99.81
2018-01-23T03:42:28.266Z,99.33
2018-01-23T03:43:28.254Z,99.43
2018-01-23T03:44:28.237Z,99.52
2018-01-23T03:45:28.223Z,99.05
2018-01-23T03:46:28.209Z,99.81
2018-01-23T03:47:28.194Z,99.52
2018-01-23T03:48:28.180Z,98.96
2018-01-23T03:49:28.165Z,99.24
2018-01-23T03:50:28.151Z,99.15
2018-01-23T03:51:28.144Z,99.52
2018-01-23T03:52:28.118Z,99.71
2018-01-23T03:53:28.111Z,99.71
2018-01-23T03:54:28.093Z,99.62
2018-01-23T03:55:28.081Z,99.99
2018-01-23T03:56:28.064Z,99.99
2018-01-23T03:57:28.052Z,99.90
2018-01-23T03:58:28.037Z,99.99
2018-01-23T03:59:28.025Z,99.99
2018-01-23T04:00:28.008Z,99.99
2018-01-23T04:01:27.997Z,99.99
2018-01-23T04:02:27.977Z,99.99
2018-01-23T04:03:27.963Z,99.90
2018-01-23T04:04:27.955Z,99.99
2018-01-23T04:05:27.936Z,99.90
2018-01-23T04:06:27.922Z,99.99
2018-01-23T04:07:27.909Z,99.81
2018-01-23T04:08:27.889Z,99.99
2018-01-23T04:09:27.878Z,99.90
2018-01-23T04:10:27.864Z,99.62
2018-01-23T04:11:27.848Z,99.99
2018-01-23T04:12:27.835Z,99.99
2018-01-23T04:13:27.821Z,99.90
2018-01-23T04:14:27.806Z,99.99
2018-01-23T04:15:27.792Z,99.99
2018-01-23T04:16:27.777Z,99.99
2018-01-23T04:17:27.761Z,99.99
2018-01-23T04:18:27.747Z,99.99
2018-01-23T04:19:27.731Z,99.99
2018-01-23T04:20:27.720Z,99.71
2018-01-23T04:21:27.712Z,99.99
2018-01-23T04:22:27.690Z,99.99
2018-01-23T04:23:27.680Z,99.99
2018-01-23T04:24:27.661Z,99.99
2018-01-23T04:25:27.649Z,99.33
2018-01-23T04:26:27.635Z,99.43
2018-01-23T04:27:27.666Z,99.43
2018-01-23T04:28:27.604Z,99.24
2018-01-23T04:29:27.591Z,99.52
2018-01-23T04:30:27.611Z,99.43
2018-01-23T04:31:27.562Z,99.24
2018-01-23T04:32:27.546Z,99.43
2018-01-23T04:33:27.534Z,99.62
2018-01-23T04:34:27.513Z,99.62
2018-01-23T04:35:27.503Z,99.81
2018-01-23T04:36:27.485Z,99.81
2018-01-23T04:37:27.474Z,99.71
2018-01-23T04:38:27.461Z,99.99
2018-01-23T04:39:27.445Z,99.81
2018-01-23T04:40:27.432Z,99.71
2018-01-23T04:41:27.418Z,99.43
2018-01-23T04:42:27.402Z,99.81
2018-01-23T04:43:27.391Z,99.52
2018-01-23T04:44:27.374Z,99.52
2018-01-23T04:45:27.363Z,99.52
2018-01-23T04:46:27.346Z,99.52
2018-01-23T04:47:27.347Z,99.43
2018-01-23T04:48:27.317Z,99.52
2018-01-23T04:49:27.298Z,99.43
2018-01-23T04:50:27.290Z,99.52
2018-01-23T04:51:27.275Z,99.52
2018-01-23T04:52:27.259Z,99.43
2018-01-23T04:53:27.245Z,99.15
2018-01-23T04:54:27.228Z,99.43
2018-01-23T04:55:27.216Z,99.71
2018-01-23T04:56:27.201Z,99.71
2018-01-23T04:57:27.187Z,99.52
2018-01-23T04:58:27.176Z,99.81
2018-01-23T04:59:27.162Z,99.99
2018-01-23T05:00:27.146Z,99.90
2018-01-23T05:01:27.133Z,99.99
2018-01-23T05:02:27.120Z,99.90
2018-01-23T05:03:27.100Z,99.99
2018-01-23T05:04:27.090Z,99.81
2018-01-23T05:05:27.070Z,99.52
2018-01-23T05:06:27.061Z,99.52
2018-01-23T05:07:27.048Z,99.43
2018-01-23T05:08:27.032Z,99.99
2018-01-23T05:09:27.017Z,99.99
2018-01-23T05:10:27.001Z,99.99
2018-01-23T05:11:26.987Z,99.71
2018-01-23T05:12:26.972Z,99.71
2018-01-23T05:13:26.960Z,99.99
2018-01-23T05:14:26.949Z,99.81
2018-01-23T05:15:26.929Z,99.62
2018-01-23T05:16:26.919Z,99.99
2018-01-23T05:17:26.896Z,99.62
2018-01-23T05:18:26.884Z,99.99
2018-01-23T05:19:26.873Z,99.81
2018-01-23T05:20:26.863Z,99.62
2018-01-23T05:21:26.842Z,99.99
2018-01-23T05:22:26.826Z,99.99
2018-01-23T05:23:26.815Z,99.99
2018-01-23T05:24:26.799Z,99.90
2018-01-23T05:25:26.786Z,99.71
2018-01-23T05:26:26.772Z,99.62
2018-01-23T05:27:26.756Z,99.99
2018-01-23T05:28:26.749Z,99.71
2018-01-23T05:29:26.723Z,99.99
2018-01-23T05:30:26.716Z,99.99
2018-01-23T05:31:26.702Z,99.81
2018-01-23T05:32:26.685Z,99.81
2018-01-23T05:33:26.668Z,99.99
2018-01-23T05:34:26.655Z,99.99
2018-01-23T05:35:26.643Z,99.99
2018-01-23T05:36:26.629Z,99.81
2018-01-23T05:37:26.609Z,99.99
2018-01-23T05:38:26.601Z,99.99
2018-01-23T05:39:26.584Z,99.43
2018-01-23T05:40:26.572Z,99.71
2018-01-23T05:41:26.553Z,99.52
2018-01-23T05:42:26.541Z,99.71
2018-01-23T05:43:26.529Z,99.71
2018-01-23T05:44:26.512Z,99.43
2018-01-23T05:45:26.501Z,99.43
2018-01-23T05:46:26.482Z,99.43
2018-01-23T05:47:26.473Z,99.71
2018-01-23T05:48:26.452Z,99.33
2018-01-23T05:49:26.442Z,99.99
2018-01-23T05:50:26.428Z,99.33
2018-01-23T05:51:26.411Z,99.24
2018-01-23T05:52:26.406Z,99.99
2018-01-23T05:53:26.384Z,99.52
2018-01-23T05:54:26.377Z,99.05
2018-01-23T05:55:26.357Z,99.43
2018-01-23T05:56:26.341Z,99.52
2018-01-23T05:57:26.329Z,99.71
2018-01-23T05:58:26.316Z,99.81
2018-01-23T05:59:26.297Z,99.52
2018-01-23T06:00:26.285Z,99.71
2018-01-23T06:01:26.268Z,99.24
2018-01-23T06:02:26.256Z,99.43
2018-01-23T06:03:26.240Z,99.62
2018-01-23T06:04:26.227Z,99.99
2018-01-23T06:05:26.213Z,99.71
2018-01-23T06:06:26.198Z,99.52
2018-01-23T06:07:26.184Z,99.24
2018-01-23T06:08:26.171Z,99.81
2018-01-23T06:09:26.155Z,99.81
2018-01-23T06:10:26.140Z,99.24
2018-01-23T06:11:26.179Z,99.24
2018-01-23T06:12:26.113Z,99.52
2018-01-23T06:13:26.099Z,99.52
2018-01-23T06:14:26.087Z,99.71
2018-01-23T06:15:26.069Z,99.05
2018-01-23T06:16:26.056Z,99.52
2018-01-23T06:17:26.041Z,99.05
2018-01-23T06:18:26.031Z,99.05
2018-01-23T06:19:26.010Z,99.62
2018-01-23T06:20:25.996Z,99.99
2018-01-23T06:21:25.986Z,99.52
2018-01-23T06:22:25.971Z,99.43
2018-01-23T06:23:25.955Z,99.90
2018-01-23T06:24:25.939Z,99.99
2018-01-23T06:25:25.925Z,99.99
2018-01-23T06:26:25.911Z,99.43
2018-01-23T06:27:25.898Z,99.43
2018-01-23T06:28:25.883Z,99.43
2018-01-23T06:29:25.869Z,99.43
2018-01-23T06:30:25.857Z,99.43
2018-01-23T06:31:25.843Z,99.90
2018-01-23T06:32:25.892Z,99.99
2018-01-23T06:33:25.812Z,99.90
2018-01-23T06:34:25.798Z,99.90
2018-01-23T06:35:25.787Z,99.99
2018-01-23T06:36:25.769Z,99.99
2018-01-23T06:37:25.758Z,99.99
2018-01-23T06:38:25.744Z,99.99
2018-01-23T06:39:25.729Z,99.99
2018-01-23T06:40:25.709Z,99.99
2018-01-23T06:41:25.697Z,99.99
2018-01-23T06:42:25.684Z,99.99
2018-01-23T06:43:25.670Z,99.99
2018-01-23T06:44:25.657Z,99.99
2018-01-23T06:45:25.639Z,99.99
2018-01-23T06:46:25.628Z,99.99
2018-01-23T06:47:25.612Z,99.99
2018-01-23T06:48:25.596Z,99.99
2018-01-23T06:49:25.591Z,99.99
2018-01-23T06:50:25.567Z,99.99
2018-01-23T06:51:25.555Z,99.99
2018-01-23T06:52:25.540Z,99.99
2018-01-23T06:53:25.524Z,99.99
2018-01-23T06:54:25.517Z,99.99
2018-01-23T06:55:25.497Z,99.99
2018-01-23T06:56:25.480Z,99.99
2018-01-23T06:57:25.467Z,99.99
2018-01-23T06:58:25.455Z,99.99
2018-01-23T06:59:25.440Z,99.99
2018-01-23T07:00:25.424Z,99.71
2018-01-23T07:01:25.410Z,99.99
2018-01-23T07:02:25.403Z,99.81
2018-01-23T07:03:25.379Z,99.99
2018-01-23T07:04:25.367Z,99.81
2018-01-23T07:05:25.355Z,99.62
2018-01-23T07:06:25.338Z,99.81
2018-01-23T07:07:25.316Z,99.81
2018-01-23T07:08:25.316Z,99.99
2018-01-23T07:09:25.293Z,99.99
2018-01-23T07:10:25.280Z,99.81
2018-01-23T07:11:25.266Z,99.62
2018-01-23T07:12:25.246Z,99.99
2018-01-23T07:13:25.242Z,99.71
2018-01-23T07:14:25.224Z,99.62
2018-01-23T07:15:25.207Z,99.62
2018-01-23T07:16:25.197Z,99.24
2018-01-23T07:17:25.177Z,99.71
2018-01-23T07:18:25.174Z,99.43
2018-01-23T07:19:25.150Z,99.43
2018-01-23T07:20:25.138Z,98.96
2018-01-23T07:21:25.115Z,99.15
2018-01-23T07:22:25.103Z,99.24
2018-01-23T07:23:25.094Z,99.24
2018-01-23T07:24:25.079Z,99.43
2018-01-23T07:25:25.065Z,99.24
2018-01-23T07:26:25.046Z,99.62
2018-01-23T07:27:25.034Z,99.52
2018-01-23T07:28:25.018Z,99.52
2018-01-23T07:29:25.007Z,99.71
2018-01-23T07:30:24.996Z,99.81
2018-01-23T07:31:24.976Z,99.81
2018-01-23T07:32:24.962Z,99.81
2018-01-23T07:33:24.948Z,99.99
2018-01-23T07:34:24.956Z,99.81
2018-01-23T07:35:24.924Z,99.99
2018-01-23T07:36:24.904Z,99.99
2018-01-23T07:37:24.894Z,99.71
2018-01-23T07:38:24.877Z,99.90
2018-01-23T07:39:24.865Z,99.99
2018-01-23T07:40:24.847Z,99.99
2018-01-23T07:41:24.833Z,99.99
2018-01-23T07:42:24.828Z,99.99
2018-01-23T07:43:24.806Z,99.99
2018-01-23T07:44:24.792Z,99.71
2018-01-23T07:45:24.774Z,99.81
2018-01-23T07:46:24.770Z,99.62
2018-01-23T07:47:24.750Z,99.62
2018-01-23T07:48:24.735Z,99.43
2018-01-23T07:49:24.722Z,99.81
2018-01-23T07:50:24.702Z,99.99
2018-01-23T07:51:24.689Z,99.99
2018-01-23T07:52:24.673Z,99.99
2018-01-23T07:53:24.661Z,99.99
2018-01-23T07:54:24.648Z,99.99
2018-01-23T07:55:24.632Z,99.99
2018-01-23T07:56:24.622Z,99.99
2018-01-23T07:57:24.604Z,99.99
2018-01-23T07:58:24.592Z,99.99
2018-01-23T07:59:24.576Z,99.99
2018-01-23T08:00:24.560Z,99.99
2018-01-23T08:01:24.547Z,99.99
2018-01-23T08:02:24.535Z,99.99
2018-01-23T08:03:24.523Z,99.99
2018-01-23T08:04:24.502Z,99.99
2018-01-23T08:05:24.486Z,99.99
2018-01-23T08:06:24.498Z,99.99
2018-01-23T08:07:24.463Z,99.99
2018-01-23T08:08:24.446Z,99.99
2018-01-23T08:09:24.435Z,99.99
2018-01-23T08:10:24.413Z,99.99
2018-01-23T08:11:24.399Z,99.99
2018-01-23T08:12:24.390Z,99.99
2018-01-23T08:13:24.374Z,99.99
2018-01-23T08:14:24.356Z,99.99
2018-01-23T08:15:24.345Z,99.99
2018-01-23T08:16:24.334Z,99.99
2018-01-23T08:17:24.314Z,99.99
2018-01-23T08:18:24.303Z,99.99
2018-01-23T08:19:24.289Z,99.99
2018-01-23T08:20:24.275Z,99.99
2018-01-23T08:21:24.260Z,99.99
2018-01-23T08:22:24.247Z,99.99
2018-01-23T08:23:24.235Z,99.99
2018-01-23T08:24:24.217Z,99.99
2018-01-23T08:25:24.202Z,99.99
2018-01-23T08:26:24.190Z,99.99
2018-01-23T08:27:24.174Z,99.99
2018-01-23T08:28:24.159Z,99.99
2018-01-23T08:29:24.146Z,99.99
2018-01-23T08:30:24.130Z,99.99
2018-01-23T08:31:24.114Z,99.99
2018-01-23T08:32:24.098Z,99.99
2018-01-23T08:33:24.083Z,99.99
2018-01-23T08:34:24.071Z,99.99
2018-01-23T08:35:24.060Z,99.99
2018-01-23T08:36:24.043Z,99.99
2018-01-23T08:37:24.032Z,99.99
2018-01-23T08:38:24.013Z,99.99
2018-01-23T08:39:24.002Z,99.99
2018-01-23T08:40:23.984Z,99.99
2018-01-23T08:41:23.966Z,99.99
2018-01-23T08:42:23.959Z,99.99
2018-01-23T08:43:23.941Z,99.99
2018-01-23T08:44:23.930Z,99.99
2018-01-23T08:45:23.914Z,99.99
2018-01-23T08:46:23.903Z,99.99
2018-01-23T08:47:23.886Z,99.99
2018-01-23T08:48:23.874Z,99.99
2018-01-23T08:49:23.856Z,99.99
2018-01-23T08:50:23.863Z,99.99
2018-01-23T08:51:23.824Z,99.99
2018-01-23T08:52:23.809Z,99.99
2018-01-23T08:53:23.796Z,99.99
2018-01-23T08:54:23.784Z,99.99
2018-01-23T08:55:23.773Z,99.99
2018-01-23T08:56:23.755Z,99.99
2018-01-23T08:57:23.742Z,99.52
2018-01-23T08:58:23.728Z,99.99
2018-01-23T08:59:23.714Z,99.81
2018-01-23T09:00:23.701Z,99.43
2018-01-23T09:01:23.684Z,99.43
2018-01-23T09:02:23.685Z,99.24
2018-01-23T09:03:23.656Z,99.48
2018-01-23T09:04:23.644Z,99.29
2018-01-23T09:05:23.684Z,99.01
2018-01-23T09:06:23.617Z,98.25
2018-01-23T09:07:23.600Z,98.72
2018-01-23T09:08:23.585Z,98.16
2018-01-23T09:09:23.569Z,98.06
2018-01-23T09:10:23.561Z,98.06
2018-01-23T09:11:23.546Z,97.97
2018-01-23T09:12:23.530Z,97.30
2018-01-23T09:13:23.513Z,97.21
2018-01-23T09:14:23.501Z,96.64
2018-01-23T09:15:23.488Z,96.17
2018-01-23T09:16:23.470Z,96.26
2018-01-23T09:17:23.462Z,96.64
2018-01-23T09:18:23.447Z,96.83
2018-01-23T09:19:23.433Z,96.92
2018-01-23T09:20:23.412Z,96.64
2018-01-23T09:21:23.404Z,95.98
2018-01-23T09:22:23.387Z,96.26
2018-01-23T09:23:23.378Z,96.45
2018-01-23T09:24:23.361Z,96.36
2018-01-23T09:25:23.348Z,96.41
2018-01-23T09:26:23.337Z,96.59
2018-01-23T09:27:23.323Z,95.65
2018-01-23T09:28:23.305Z,95.74
2018-01-23T09:29:23.294Z,95.55
2018-01-23T09:30:23.280Z,95.26
2018-01-23T09:31:23.265Z,95.50
2018-01-23T09:32:23.250Z,95.74
2018-01-23T09:33:23.238Z,95.22
2018-01-23T09:34:23.222Z,95.45
2018-01-23T09:35:23.214Z,95.26
2018-01-23T09:36:23.195Z,95.45
2018-01-23T09:37:23.189Z,95.36
2018-01-23T09:38:23.170Z,95.84
2018-01-23T09:39:23.158Z,95.74
2018-01-23T09:40:23.144Z,95.45
2018-01-23T09:41:23.127Z,96.12
2018-01-23T09:42:23.120Z,95.36
2018-01-23T09:43:23.100Z,95.45
2018-01-23T09:44:23.087Z,94.32
2018-01-23T09:45:23.075Z,94.04
2018-01-23T09:46:23.083Z,94.79
2018-01-23T09:47:23.053Z,94.51
2018-01-23T09:48:23.046Z,94.98
2018-01-23T09:49:23.021Z,94.32
2018-01-23T09:50:23.005Z,93.94
2018-01-23T09:51:22.994Z,93.94
2018-01-23T09:52:22.984Z,94.23
2018-01-23T09:53:22.969Z,94.23
2018-01-23T09:54:22.959Z,94.13
2018-01-23T09:55:22.939Z,93.94
2018-01-23T09:56:22.926Z,93.37
2018-01-23T09:57:22.916Z,93.18
2018-01-23T09:58:22.902Z,93.65
2018-01-23T09:59:22.885Z,93.46
2018-01-23T10:00:22.873Z,94.13
2018-01-23T10:01:22.856Z,93.65
2018-01-23T10:02:22.851Z,93.75
2018-01-23T10:03:22.835Z,94.32
2018-01-23T10:04:22.817Z,94.13
2018-01-23T10:05:22.808Z,94.23
2018-01-23T10:06:22.791Z,93.94
2018-01-23T10:07:22.783Z,94.23
2018-01-23T10:08:22.767Z,94.32
2018-01-23T10:09:22.755Z,93.84
2018-01-23T10:10:22.738Z,93.37
2018-01-23T10:11:22.723Z,93.75
2018-01-23T10:12:22.713Z,93.80
2018-01-23T10:13:22.697Z,93.99
2018-01-23T10:14:22.688Z,93.23
2018-01-23T10:15:22.672Z,93.13
2018-01-23T10:16:22.655Z,92.85
2018-01-23T10:17:22.645Z,91.99
2018-01-23T10:18:22.637Z,91.33
2018-01-23T10:19:22.618Z,90.95
2018-01-23T10:20:22.606Z,90.10
2018-01-23T10:21:22.589Z,89.86
2018-01-23T10:22:22.579Z,89.15
2018-01-23T10:23:22.568Z,88.15
2018-01-23T10:24:22.552Z,88.24
2018-01-23T10:25:22.539Z,87.96
2018-01-23T10:26:22.523Z,87.77
2018-01-23T10:27:22.513Z,87.87
2018-01-23T10:28:22.501Z,88.62
2018-01-23T10:29:22.499Z,88.15
2018-01-23T10:30:22.473Z,87.30
2018-01-23T10:31:22.460Z,87.96
2018-01-23T10:32:22.450Z,87.58
2018-01-23T10:33:22.438Z,87.49
2018-01-23T10:34:22.422Z,86.72
2018-01-23T10:35:22.411Z,86.82
2018-01-23T10:36:22.398Z,86.44
2018-01-23T10:37:22.389Z,85.78
2018-01-23T10:38:22.372Z,85.16
2018-01-23T10:39:22.358Z,86.01
2018-01-23T10:40:22.348Z,85.82
2018-01-23T10:41:22.334Z,86.11
2018-01-23T10:42:22.324Z,85.96
2018-01-23T10:43:22.309Z,85.11
2018-01-23T10:44:22.293Z,86.53
2018-01-23T10:45:22.290Z,84.20
2018-01-23T10:46:22.274Z,83.15
2018-01-23T10:47:22.261Z,81.54
2018-01-23T10:48:22.249Z,80.15
2018-01-23T10:49:22.239Z,79.11
2018-01-23T10:50:22.226Z,79.20
2018-01-23T10:51:22.210Z,80.63
2018-01-23T10:52:22.197Z,79.68
2018-01-23T10:53:22.185Z,79.30
2018-01-23T10:54:22.176Z,79.11
2018-01-23T10:55:22.162Z,78.86
2018-01-23T10:56:22.150Z,78.00
2018-01-23T10:57:22.140Z,76.57
2018-01-23T10:58:22.131Z,76.10
2018-01-23T10:59:22.121Z,75.53
2018-01-23T11:00:22.111Z,75.91
2018-01-23T11:01:22.096Z,76.82
2018-01-23T11:02:22.086Z,77.20
2018-01-23T11:03:22.069Z,78.82
2018-01-23T11:04:22.058Z,78.78
2018-01-23T11:05:22.046Z,79.73
2018-01-23T11:06:22.043Z,79.92
2018-01-23T11:07:22.047Z,80.68
2018-01-23T11:08:22.018Z,80.16
2018-01-23T11:09:22.004Z,80.74
2018-01-23T11:10:21.995Z,81.97
2018-01-23T11:11:21.981Z,81.93
2018-01-23T11:12:21.967Z,82.78
2018-01-23T11:13:21.956Z,83.16
2018-01-23T11:14:21.940Z,84.01
2018-01-23T11:15:21.933Z,84.49
2018-01-23T11:16:21.924Z,84.49
2018-01-23T11:17:21.911Z,84.40
2018-01-23T11:18:21.900Z,85.02
2018-01-23T11:19:21.889Z,85.78
2018-01-23T11:20:21.873Z,85.40
2018-01-23T11:21:21.869Z,87.11
2018-01-23T11:22:21.852Z,87.30
2018-01-23T11:23:21.843Z,87.39
2018-01-23T11:24:21.827Z,87.49
2018-01-23T11:25:21.813Z,87.77
2018-01-23T11:26:21.812Z,87.58
2018-01-23T11:27:21.792Z,87.58
2018-01-23T11:28:21.778Z,87.49
2018-01-23T11:29:21.769Z,87.24
2018-01-23T11:30:21.753Z,86.87
2018-01-23T11:31:21.744Z,85.82
2018-01-23T11:32:21.732Z,85.06
2018-01-23T11:33:21.713Z,85.25
2018-01-23T11:34:21.717Z,84.78
2018-01-23T11:35:21.699Z,85.25
2018-01-23T11:36:21.682Z,84.30
2018-01-23T11:37:21.674Z,83.83
2018-01-23T11:38:21.659Z,84.40
2018-01-23T11:39:21.647Z,84.78
2018-01-23T11:40:21.632Z,85.06
2018-01-23T11:41:21.621Z,84.97
2018-01-23T11:42:21.609Z,85.44
2018-01-23T11:43:21.597Z,84.97
2018-01-23T11:44:21.583Z,84.78
2018-01-23T11:45:21.572Z,84.83
2018-01-23T11:46:21.561Z,85.02
2018-01-23T11:47:21.547Z,85.02
2018-01-23T11:48:21.535Z,85.59
2018-01-23T11:49:21.523Z,85.49
2018-01-23T11:50:21.514Z,85.78
2018-01-23T11:51:21.507Z,85.21
2018-01-23T11:52:21.495Z,85.02
2018-01-23T11:53:21.480Z,84.92
2018-01-23T11:54:21.460Z,85.40
2018-01-23T11:55:21.453Z,85.68
2018-01-23T11:56:21.437Z,86.25
2018-01-23T11:57:21.425Z,85.78
2018-01-23T11:58:21.414Z,86.35
2018-01-23T11:59:21.402Z,85.97
2018-01-23T12:00:21.391Z,85.87
2018-01-23T12:01:21.377Z,86.07
2018-01-23T12:02:21.360Z,85.78
2018-01-23T12:03:21.352Z,85.59
2018-01-23T12:04:21.338Z,85.78
2018-01-23T12:05:21.329Z,85.78
2018-01-23T12:06:21.313Z,85.78
2018-01-23T12:07:21.302Z,85.78
2018-01-23T12:08:21.286Z,85.87
2018-01-23T12:09:21.279Z,86.44
2018-01-23T12:10:21.265Z,85.97
2018-01-23T12:11:21.256Z,86.07
2018-01-23T12:12:21.246Z,85.97
2018-01-23T12:13:21.227Z,86.16
2018-01-23T12:14:21.220Z,85.78
2018-01-23T12:15:21.201Z,85.78
2018-01-23T12:16:21.190Z,86.25
2018-01-23T12:17:21.176Z,86.49
2018-01-23T12:18:21.162Z,86.78
2018-01-23T12:19:21.153Z,87.54
2018-01-23T12:20:21.139Z,87.73
2018-01-23T12:21:21.128Z,87.92
2018-01-23T12:22:21.111Z,87.92
2018-01-23T12:23:21.099Z,88.20
2018-01-23T12:24:21.091Z,88.29
2018-01-23T12:25:21.081Z,87.73
2018-01-23T12:26:21.066Z,88.29
2018-01-23T12:27:21.051Z,88.10
2018-01-23T12:28:21.037Z,88.48
2018-01-23T12:29:21.025Z,88.68
2018-01-23T12:30:21.011Z,88.39
2018-01-23T12:31:21.000Z,88.87
2018-01-23T12:32:20.987Z,88.39
2018-01-23T12:33:20.975Z,88.10
2018-01-23T12:34:20.964Z,88.01
2018-01-23T12:35:20.948Z,88.39
2018-01-23T12:36:20.934Z,87.92
2018-01-23T12:37:20.919Z,87.92
2018-01-23T12:38:20.910Z,88.10
2018-01-23T12:39:20.898Z,88.48
2018-01-23T12:40:20.882Z,87.45
2018-01-23T12:41:20.885Z,87.73
2018-01-23T12:42:20.861Z,87.82
2018-01-23T12:43:20.848Z,88.06
2018-01-23T12:44:20.834Z,87.96
2018-01-23T12:45:20.822Z,87.30
2018-01-23T12:46:20.803Z,87.01
2018-01-23T12:47:20.794Z,86.44
2018-01-23T12:48:20.782Z,86.35
2018-01-23T12:49:20.769Z,86.54
2018-01-23T12:50:20.757Z,85.87
2018-01-23T12:51:20.743Z,85.97
2018-01-23T12:52:20.730Z,85.59